Flight Track Log - Related Links

Times and Time Zones

All times are in EST time to prevent confusion due to time zone crossing. See the VOZ1484 flight status page for this flight to view local times or setup timezone preferences in your user account.

Time Position Orientation Groundspeed Altitude Reporting Facility
EST Latitude Longitude Course Direction KTS MPH feet Rate Location/Type
Sun 12:36:35 AM -18.0012 122.1930 203° Southwest 16,500  Level Aus ATC (Calculated)
Sun 12:37:34 AM -18.0529 122.1582 203° Southwest 16,500 808 Level Aus ATC (Calculated)
Sun 12:38:00 AM -18.1562 122.1271 202° Southwest  Level FlightAware Approximate
Sun 12:38:41 AM -18.1045 122.1235 202° Southwest 16,500  Level Aus ATC (Calculated)
Sun 12:39:27 AM -18.1561 122.0887 202° Southwest 16,500 872 Level Aus ATC (Calculated)
Sun 12:40:00 AM -18.2077 122.0539 202° Southwest 16,500 898 Level Aus ATC (Calculated)
Sun 12:40:34 AM -18.2065 122.0567 202° Southwest 16,500 918 Level Aus ATC (Calculated)
Sun 12:41:02 AM -18.2585 122.0209 202° Southwest 16,500 939 Level Aus ATC (Calculated)
Sun 12:42:58 AM -18.3625 121.9493 201° Southwest 16,500 958 Level Aus ATC (Calculated)
Sun 12:43:00 AM -18.4745 121.9313 201° Southwest  Level FlightAware Approximate
Sun 12:44:00 AM -18.4762 121.9027 201° Southwest  Level FlightAware Approximate
Sun 12:45:00 AM -18.5862 121.8575 201° Southwest  Level FlightAware Approximate
Sun 12:45:34 AM -18.6353 121.8374 201° Southwest 40,000  Level Aus ATC (Calculated)
Sun 12:45:53 AM -18.7262 121.8000 201° Southwest 40,000 -26 Level Aus ATC (Calculated)
Sun 12:47:00 AM -18.8490 121.7494 201° Southwest  Level FlightAware Approximate
Sun 12:47:43 AM -18.9080 121.7251 201° Southwest 40,000  Level Aus ATC (Calculated)
Sun 12:48:00 AM -18.9590 121.7040 201° Southwest  Level FlightAware Approximate
Sun 12:49:00 AM -19.0491 121.6668 201° Southwest  Level FlightAware Approximate
Sun 12:49:34 AM -19.0898 121.6500 201° Southwest 40,000  Level Aus ATC (Calculated)
Sun 12:50:00 AM -19.1590 121.6213 201° Southwest  Level FlightAware Approximate
Sun 12:50:37 AM -19.1806 121.6124 201° Southwest 40,000  Level Aus ATC (Calculated)
Sun 12:51:00 AM -19.2473 121.5848 201° Southwest  Level FlightAware Approximate
Sun 12:52:00 AM -19.3327 121.5494 201° Southwest  Level FlightAware Approximate
Sun 12:53:00 AM -19.4426 121.5037 201° Southwest  Level FlightAware Approximate
Sun 12:53:08 AM -19.4532 121.4993 201° Southwest 40,000  Level Aus ATC (Calculated)
Sun 12:55:00 AM -19.6599 121.4133 201° Southwest  Level FlightAware Approximate
Sun 12:55:24 AM -19.7256 121.3859 201° Southwest 40,000  Level Aus ATC (Calculated)
Sun 12:56:00 AM -19.7706 121.3672 201° Southwest  Level FlightAware Approximate
Sun 12:56:07 AM -19.8164 121.3480 201° Southwest 40,000  Level Aus ATC (Calculated)
Sun 12:58:00 AM -20.0233 121.2615 201° Southwest  Level FlightAware Approximate
Sun 12:59:00 AM -20.1331 121.2155 201° Southwest  Level FlightAware Approximate
Sun 01:00:00 AM -20.2430 121.1694 201° Southwest  Level FlightAware Approximate
Sun 01:00:53 AM -20.3807 121.1115 202° Southwest 40,000  Level Aus ATC (Calculated)
Sun 01:02:00 AM -20.5033 121.0599 202° Southwest  Level FlightAware Approximate
Sun 01:03:00 AM -20.6131 121.0136 202° Southwest  Level FlightAware Approximate
Sun 01:04:00 AM -20.7229 120.9672 202° Southwest  Level FlightAware Approximate
Sun 01:05:00 AM -20.8326 120.9208 202° Southwest  Level FlightAware Approximate
Sun 01:05:03 AM -20.8529 120.9114 202° Southwest 426 490 39,500  Level Aus ATC (RADAR)
Sun 01:05:33 AM -20.9107 120.8882 201° Southwest 433 498 39,500  Level Aus ATC (RADAR)
Sun 01:05:52 AM -20.9488 120.8722 201° Southwest 435 501 39,500  Level Aus ATC (RADAR)
Sun 01:06:28 AM -21.0147 120.8436 202° Southwest 436 502 39,500  Level Aus ATC (RADAR)
Sun 01:07:12 AM -21.1005 120.8075 201° Southwest 437 503 39,500  Level Aus ATC (RADAR)
Sun 01:07:38 AM -21.1477 120.7870 202° Southwest 437 503 39,500  Level Aus ATC (RADAR)
Sun 01:08:12 AM -21.2146 120.7587 202° Southwest 438 504 39,500  Level Aus ATC (RADAR)
Sun 01:08:52 AM -21.2906 120.7261 202° Southwest 439 505 39,500  Level Aus ATC (RADAR)
Sun 01:09:27 AM -21.3576 120.6978 202° Southwest 440 506 39,500  Level Aus ATC (RADAR)
Sun 01:10:32 AM -21.4817 120.6447 202° Southwest 441 507 39,500  Level Aus ATC (RADAR)
Sun 01:11:02 AM -21.5388 120.6202 202° Southwest 440 506 39,500  Level Aus ATC (RADAR)
Sun 01:11:37 AM -21.6064 120.5922 201° Southwest 441 507 39,500  Level Aus ATC (RADAR)
Sun 01:12:22 AM -21.6915 120.5550 202° Southwest 440 506 39,500 225 Level Aus ATC (RADAR)
Sun 01:12:57 AM -21.7587 120.5268 201° Southwest 440 506 39,800 225 Climbing Aus ATC (RADAR)
Sun 01:13:42 AM -21.8440 120.4900 202° Southwest 441 507 39,800  Level Aus ATC (RADAR)
Sun 01:14:12 AM -21.9013 120.4654 202° Southwest 422 486 39,800  Level Aus ATC (RADAR)
Sun 01:15:02 AM -21.9960 120.4240 202° Southwest 436 502 39,800  Level Aus ATC (RADAR)
Sun 01:15:32 AM -22.0533 120.3997 201° Southwest 439 505 39,800  Level Aus ATC (RADAR)
Sun 01:15:56 AM -22.1015 120.3794 201° Southwest 442 509 39,800  Level Aus ATC (RADAR)
Sun 01:16:36 AM -22.1771 120.3463 202° Southwest 440 506 39,800  Level Aus ATC (RADAR)
Sun 01:17:11 AM -22.2431 120.3175 202° Southwest 438 504 39,800  Level Aus ATC (RADAR)
Sun 01:17:46 AM -22.3087 120.2886 202° Southwest 439 505 39,800  Level Aus ATC (RADAR)
Sun 01:18:36 AM -22.4056 120.2480 201° Southwest 444 511 39,800  Level Aus ATC (RADAR)
Sun 01:19:01 AM -22.4535 120.2272 202° Southwest 445 512 39,800  Level Aus ATC (RADAR)
Sun 01:19:36 AM -22.5200 120.1980 202° Southwest 443 510 39,800  Level Aus ATC (RADAR)
Sun 01:20:31 AM -22.6251 120.1522 202° Southwest 443 510 39,800  Level Aus ATC (RADAR)
Sun 01:20:56 AM -22.6726 120.1313 202° Southwest 442 509 39,800  Level Aus ATC (RADAR)
Sun 01:21:31 AM -22.7394 120.1022 202° Southwest 442 509 39,800  Level Aus ATC (RADAR)
Sun 01:22:16 AM -22.8254 120.0648 202° Southwest 443 510 39,800  Level Aus ATC (RADAR)
Sun 01:22:51 AM -22.8923 120.0358 202° Southwest 443 510 39,800  Level Aus ATC (RADAR)
Sun 01:23:26 AM -22.9590 120.0067 202° Southwest 442 509 39,800  Level Aus ATC (RADAR)
Sun 01:24:06 AM -23.0342 119.9735 202° Southwest 439 505 39,800  Level Aus ATC (RADAR)
Sun 01:24:41 AM -23.1004 119.9446 202° Southwest 438 504 39,800  Level Aus ATC (RADAR)
Sun 01:25:31 AM -23.1939 119.9035 202° Southwest 435 501 39,800  Level Aus ATC (RADAR)
Sun 01:25:51 AM -23.2318 119.8871 202° Southwest 436 502 39,800  Level Aus ATC (RADAR)
Sun 01:26:25 AM -23.2965 119.8586 202° Southwest 432 497 39,800  Level Aus ATC (RADAR)
Sun 01:27:10 AM -23.3826 119.8216 201° Southwest 440 506 39,800  Level Aus ATC (RADAR)
Sun 01:27:50 AM -23.4559 119.7888 202° Southwest 431 496 39,800  Level Aus ATC (RADAR)
Sun 01:28:35 AM -23.5409 119.7536 201° Southwest 433 498 39,800  Level Aus ATC (RADAR)
Sun 01:29:00 AM -23.5900 119.7335 201° Southwest 443 510 39,800  Level Aus ATC (RADAR)
Sun 01:29:35 AM -23.6601 119.7050 200° South 458 527 39,800  Level Aus ATC (RADAR)
Sun 01:30:35 AM -23.7707 119.6578 201° Southwest 438 504 39,800  Level Aus ATC (RADAR)
Sun 01:31:00 AM -23.8184 119.6378 201° Southwest 441 507 39,800  Level Aus ATC (RADAR)
Sun 01:31:35 AM -23.8856 119.6095 201° Southwest 443 510 39,800  Level Aus ATC (RADAR)
Sun 01:32:20 AM -23.9729 119.5729 201° Southwest 446 513 39,800  Level Aus ATC (RADAR)
Sun 01:32:55 AM -24.0388 119.5452 201° Southwest 440 506 39,800  Level Aus ATC (RADAR)
Sun 01:33:45 AM -24.1331 119.5056 201° Southwest 439 505 39,800  Level Aus ATC (RADAR)
Sun 01:34:05 AM -24.1724 119.4887 201° Southwest 446 513 39,800  Level Aus ATC (RADAR)
Sun 01:34:40 AM -24.2386 119.4609 201° Southwest 442 509 39,800  Level Aus ATC (RADAR)
Sun 01:35:49 AM -24.3721 119.4047 201° Southwest 443 510 39,800  Level Aus ATC (RADAR)
Sun 01:36:14 AM -24.4208 119.3838 201° Southwest 446 513 39,800  Level Aus ATC (RADAR)
Sun 01:36:49 AM -24.4880 119.3555 201° Southwest 445 512 39,800  Level Aus ATC (RADAR)
Sun 01:37:34 AM -24.5751 119.3189 201° Southwest 447 514 39,800  Level Aus ATC (RADAR)
Sun 01:38:09 AM -24.6440 119.2891 201° Southwest 452 520 39,800  Level Aus ATC (RADAR)
Sun 01:38:44 AM -24.7115 119.2609 201° Southwest 448 516 39,800  Level Aus ATC (RADAR)
Sun 01:39:19 AM -24.7808 119.2306 202° Southwest 454 522 39,800  Level Aus ATC (RADAR)
Sun 01:39:54 AM -24.8485 119.2019 201° Southwest 450 518 39,800  Level Aus ATC (RADAR)
Sun 01:40:54 AM -24.9646 119.1528 201° Southwest 446 513 39,800  Level Aus ATC (RADAR)
Sun 01:41:19 AM -25.0134 119.1318 201° Southwest 448 516 39,800  Level Aus ATC (RADAR)
Sun 01:41:54 AM -25.0816 119.1022 201° Southwest 452 520 39,800  Level Aus ATC (RADAR)
Sun 01:42:49 AM -25.1870 119.0579 201° Southwest 444 511 39,800  Level Aus ATC (RADAR)
Sun 01:43:24 AM -25.2547 119.0285 201° Southwest 446 513 39,800  Level Aus ATC (RADAR)
Sun 01:44:14 AM -25.3511 118.9869 201° Southwest 447 514 39,800  Level Aus ATC (RADAR)
Sun 01:44:54 AM -25.4276 118.9535 202° Southwest 447 514 39,800  Level Aus ATC (RADAR)
Sun 01:46:08 AM -25.5712 118.8928 201° Southwest 443 510 39,800  Level Aus ATC (RADAR)
Sun 01:46:38 AM -25.6287 118.8675 202° Southwest 444 511 39,800  Level Aus ATC (RADAR)
Sun 01:47:14 AM -25.6960 118.8376 202° Southwest 446 513 39,800  Level Aus ATC (RADAR)
Sun 01:47:48 AM -25.7634 118.8075 202° Southwest 448 516 39,800  Level Aus ATC (RADAR)
Sun 01:48:23 AM -25.8303 118.7781 202° Southwest 446 513 39,800  Level Aus ATC (RADAR)
Sun 01:48:58 AM -25.8964 118.7504 201° Southwest 440 506 39,800  Level Aus ATC (RADAR)
Sun 01:49:38 AM -25.9728 118.7161 202° Southwest 442 509 39,800  Level Aus ATC (RADAR)
Sun 01:50:13 AM -26.0393 118.6867 202° Southwest 443 510 39,800  Level Aus ATC (RADAR)
Sun 01:51:18 AM -26.1627 118.6337 201° Southwest 440 506 39,800  Level Aus ATC (RADAR)
Sun 01:51:43 AM -26.2103 118.6121 202° Southwest 442 509 39,800  Level Aus ATC (RADAR)
Sun 01:52:18 AM -26.2761 118.5852 200° South 437 503 39,800  Level Aus ATC (RADAR)
Sun 01:52:53 AM -26.3427 118.5539 203° Southwest 439 505 39,800  Level Aus ATC (RADAR)
Sun 01:53:28 AM -26.4084 118.5261 201° Southwest 438 504 39,800  Level Aus ATC (RADAR)
Sun 01:54:03 AM -26.4741 118.4986 201° Southwest 436 502 39,800  Level Aus ATC (RADAR)
Sun 01:54:38 AM -26.5405 118.4685 202° Southwest 439 505 39,800  Level Aus ATC (RADAR)
Sun 01:55:03 AM -26.5876 118.4484 201° Southwest 438 504 39,800  Level Aus ATC (RADAR)
Sun 01:56:27 AM -26.7456 118.3926 198° South 383 441 39,800  Level Aus ATC (RADAR)
Sun 02:06:42 AM -27.9070 117.8723 202° Southwest 496 571 39,800  Level Aus ATC (RADAR)
Sun 02:07:17 AM -27.9646 117.8244 216° Southwest 435 501 39,800  Level Aus ATC (RADAR)
Sun 02:08:07 AM -28.0575 117.7811 202° Southwest 435 501 39,800  Level Aus ATC (RADAR)
Sun 02:08:41 AM -28.1237 117.7525 201° Southwest 436 502 39,800  Level Aus ATC (RADAR)
Sun 02:09:31 AM -28.2186 117.7110 201° Southwest 440 506 39,800  Level Aus ATC (RADAR)
Sun 02:09:56 AM -28.2620 117.6821 210° Southwest 435 501 39,800  Level Aus ATC (RADAR)
Sun 02:10:31 AM -28.3283 117.6510 202° Southwest 439 505 39,800  Level Aus ATC (RADAR)
Sun 02:11:21 AM -28.4238 117.6086 201° Southwest 443 510 39,800 207 Level Aus ATC (RADAR)
Sun 02:11:29 AM -28.4446 117.6161 200° South 436 502 40,000  Climbing FlightAware ADS-B
Sun 02:11:51 AM -28.4811 117.5848 200° South 444 511 39,800  Descending Aus ATC (RADAR)
Sun 02:12:08 AM -28.5189 117.5822 202° Southwest 435 501 40,000 200 Climbing FlightAware ADS-B
Sun 02:12:51 AM -28.6020 117.5441 202° Southwest 434 499 40,000  Level FlightAware ADS-B
Sun 02:13:35 AM -28.6849 117.5061 202° Southwest 434 499 40,000  Level FlightAware ADS-B
Sun 02:14:15 AM -28.7594 117.4721 202° Southwest 435 501 40,000 -169 Level FlightAware ADS-B
Sun 02:14:46 AM -28.8136 117.4362 202° Southwest 439 505 39,800  Descending Aus ATC (RADAR)
Sun 02:14:59 AM -28.8445 117.4329 202° Southwest 434 499 40,000 211 Climbing FlightAware ADS-B
Sun 02:15:43 AM -28.9269 117.3948 202° Southwest 432 497 40,000  Level FlightAware ADS-B
Sun 02:16:26 AM -29.0061 117.3583 202° Southwest 438 504 40,000  Level FlightAware ADS-B
Sun 02:17:07 AM -29.0855 117.3216 202° Southwest 437 503 40,000  Level FlightAware ADS-B
Sun 02:17:51 AM -29.1678 117.2836 202° Southwest 437 503 40,000  Level FlightAware ADS-B
Sun 02:18:34 AM -29.2479 117.2465 202° Southwest 436 502 40,000  Level FlightAware ADS-B
Sun 02:19:16 AM -29.3270 117.2096 202° Southwest 437 503 40,000  Level FlightAware ADS-B
Sun 02:20:01 AM -29.4118 117.1702 202° Southwest 437 503 40,000  Level FlightAware ADS-B
Sun 02:20:42 AM -29.4874 117.1349 202° Southwest 437 503 40,000  Level FlightAware ADS-B
Sun 02:21:24 AM -29.5663 117.0980 202° Southwest 439 505 40,000  Level FlightAware ADS-B
Sun 02:22:11 AM -29.6564 117.0581 201° Southwest 433 498 40,000 -70 Level FlightAware ADS-B
Sun 02:22:50 AM -29.7273 117.0230 201° Southwest 439 505 39,900  Descending Aus ATC (RADAR)
Sun 02:22:51 AM -29.7338 117.0259 201° Southwest 442 509 40,000 -1,029 Climbing FlightAware ADS-B
Sun 02:23:25 AM -29.7941 116.9961 201° Southwest 435 501 39,300 -1,435 Descending Aus ATC (RADAR)
Sun 02:23:37 AM -29.8190 116.9897 201° Southwest 427 491 38,900 -1,920 Descending FlightAware ADS-B
Sun 02:24:15 AM -29.8872 116.9546 201° Southwest 430 495 37,700 -1,600 Descending Aus ATC (RADAR)
Sun 02:24:22 AM -29.9039 116.9532 201° Southwest 415 478 37,700 -1,224 Level FlightAware ADS-B
Sun 02:25:04 AM -29.9779 116.9213 200° South 400 460 36,700 -1,694 Descending FlightAware ADS-B
Sun 02:25:47 AM -30.0551 116.8881 200° South 393 452 35,300 -1,753 Descending FlightAware ADS-B
Sun 02:26:33 AM -30.1336 116.8544 200° South 380 437 34,100 -1,636 Descending FlightAware ADS-B
Sun 02:27:04 AM -30.1827 116.8291 200° South 383 441 33,200 -1,500 Descending Aus ATC (RADAR)
Sun 02:27:17 AM -30.2053 116.8234 200° South 377 434 33,000 -1,636 Descending FlightAware ADS-B
Sun 02:27:59 AM -30.2744 116.7936 200° South 366 421 31,700 -1,888 Descending FlightAware ADS-B
Sun 02:28:46 AM -30.3500 116.7609 200° South 363 418 30,200 -1,906 Descending FlightAware ADS-B
Sun 02:29:24 AM -30.4084 116.7327 200° South 364 419 29,000 -1,800 Descending Aus ATC (RADAR)
Sun 02:29:26 AM -30.4126 116.7335 200° South 359 413 29,000 -3,429 Level FlightAware ADS-B
Sun 02:29:59 AM -30.4653 116.7076 200° South 376 433 27,000 -2,809 Descending Aus ATC (RADAR)
Sun 02:30:13 AM -30.4913 116.6997 200° South 380 437 26,800 -1,560 Descending FlightAware ADS-B
Sun 02:30:49 AM -30.5491 116.6717 200° South 382 440 25,700 -1,565 Descending Aus ATC (RADAR)
Sun 02:30:59 AM -30.5674 116.6667 200° South 377 434 25,600 -1,500 Descending FlightAware ADS-B
Sun 02:31:29 AM -30.6138 116.6440 200° South 372 428 24,700 -1,773 Descending Aus ATC (RADAR)
Sun 02:31:43 AM -30.6375 116.6363 200° South 361 415 24,300 -1,418 Descending FlightAware ADS-B
Sun 02:32:24 AM -30.7029 116.6077 201° Southwest 348 400 23,400 -1,481 Descending FlightAware ADS-B
Sun 02:33:04 AM -30.7607 116.5798 201° Southwest 346 398 22,300 -1,592 Descending Aus ATC (RADAR)
Sun 02:33:13 AM -30.7758 116.5757 201° Southwest 346 398 22,100 -1,826 Descending FlightAware ADS-B
Sun 02:33:50 AM -30.8328 116.5508 201° Southwest 349 402 20,900 -1,807 Descending FlightAware ADS-B
Sun 02:34:36 AM -30.9020 116.5205 201° Southwest 344 396 19,600 -1,435 Descending FlightAware ADS-B
Sun 02:35:22 AM -30.9686 116.4912 201° Southwest 325 374 18,700 -1,295 Descending FlightAware ADS-B
Sun 02:36:04 AM -31.0264 116.4660 201° Southwest 311 358 17,700 -1,610 Descending FlightAware ADS-B
Sun 02:36:44 AM -31.0791 116.4412 201° Southwest 313 360 16,500 -1,500 Descending Aus ATC (RADAR)
Sun 02:36:48 AM -31.0868 116.4394 201° Southwest 311 358 16,600 -1,588 Climbing FlightAware ADS-B
Sun 02:37:18 AM -31.1262 116.4210 201° Southwest 309 356 15,600 -1,826 Descending Aus ATC (RADAR)
Sun 02:37:34 AM -31.1490 116.4120 201° Southwest 310 357 15,200 -1,636 Descending FlightAware ADS-B
Sun 02:38:13 AM -31.2015 116.3889 201° Southwest 312 359 14,100 -1,826 Descending FlightAware ADS-B
Sun 02:38:43 AM -31.2406 116.3710 201° Southwest 311 358 13,100 -1,733 Descending Aus ATC (RADAR)
Sun 02:38:58 AM -31.2623 116.3620 201° Southwest 312 359 12,800 -1,200 Descending FlightAware ADS-B
Sun 02:39:43 AM -31.3222 116.3358 201° Southwest 295 339 11,900 -1,348 Descending FlightAware ADS-B
Sun 02:40:27 AM -31.3785 116.3106 201° Southwest 292 336 10,800 -1,482 Descending FlightAware ADS-B
Sun 02:41:08 AM -31.4304 116.2848 203° Southwest 295 339 9,800 -1,475 Descending FlightAware ADS-B
Sun 02:41:28 AM -31.4549 116.2693 208° Southwest 295 339 9,300 -1,565 Descending FlightAware ADS-B
Sun 02:41:54 AM -31.4855 116.2496 209° Southwest 293 337 8,600 -1,636 Descending FlightAware ADS-B
Sun 02:42:12 AM -31.5078 116.2355 208° Southwest 292 336 8,100 -1,535 Descending FlightAware ADS-B
Sun 02:42:37 AM -31.5369 116.2170 208° Southwest 290 334 7,500 -1,532 Descending FlightAware ADS-B
Sun 02:42:59 AM -31.5624 116.2006 209° Southwest 281 323 6,900 -1,610 Descending FlightAware ADS-B
Sun 02:43:18 AM -31.5846 116.1862 209° Southwest 277 319 6,400 -1,364 Descending FlightAware ADS-B
Sun 02:43:43 AM -31.6136 116.1677 209° Southwest 281 323 5,900 -933 Descending FlightAware ADS-B
Sun 02:44:03 AM -31.6354 116.1537 209° Southwest 258 297 5,700 -769 Descending FlightAware ADS-B
Sun 02:44:22 AM -31.6560 116.1405 209° Southwest 259 298 5,400 -1,000 Descending FlightAware ADS-B
Sun 02:44:45 AM -31.6789 116.1259 209° Southwest 254 292 5,000 -789 Descending FlightAware ADS-B
Sun 02:45:00 AM -31.6953 116.1154 208° Southwest 242 278 4,900 -571 Descending FlightAware ADS-B
Sun 02:45:27 AM -31.7215 116.0982 209° Southwest 225 259 4,600 -783 Descending FlightAware ADS-B
Sun 02:45:46 AM -31.7389 116.0873 208° Southwest 220 253 4,300 -1,067 Descending FlightAware ADS-B
Sun 02:46:12 AM -31.7591 116.0699 216° Southwest 200 230 3,800 -1,256 Descending FlightAware ADS-B
Sun 02:46:29 AM -31.7682 116.0556 233° Southwest 187 215 3,400 -1,000 Descending FlightAware ADS-B
Sun 02:46:54 AM -31.7805 116.0367 233° Southwest 167 192 3,100 -511 Descending FlightAware ADS-B
Sun 02:47:16 AM -31.7910 116.0197 234° Southwest 156 180 3,000 -500 Descending FlightAware ADS-B
Sun 02:47:30 AM -31.7972 116.0105 232° Southwest 155 178 2,800 -1,179 Descending FlightAware ADS-B
Sun 02:48:12 AM -31.8239 115.9989 232° Southwest 147 169 1,900 -951 Descending Aus ATC (RADAR)
Sun 02:48:52 AM -31.8505 115.9913 194° South 147 169 1,500 -640 Descending Aus ATC (RADAR)
Sun 02:49:27 AM -31.8721 115.9847 194° South 137 158 1,100 -686 Descending Aus ATC (RADAR)
Sun 02:50:02 AM -31.8951 115.9784 193° South 145 167 700 -686 Descending Aus ATC (RADAR)
Sun 02:50:37 AM -31.9163 115.9718 195° South 137 158 300 -462 Descending Aus ATC (RADAR)
Sun 02:51:07 AM -31.9357 115.9663 195° South 134 154 200 -200 Descending FlightAware ADS-B

Login

Don't have an account? Register now (free) for customized features, flight alerts, and more!